Time;durP1;ratioP1;P1;durP2;ratioP2;P2;SDS_P1;SDS_P2;PMS_P1;PMS_P2;Temp;Humidity;BMP_temperature;BMP_pressure;BME280_temperature;BME280_humidity;BME280_pressure;Samples;Min_cycle;Max_cycle;Signal;HPM_P1;HPM_P2
2021/12/22 00:01:27;;;;;;;4.63;0.77;;;;;;;;;;4971183;28;20210;-64
2021/12/22 00:03:55;;;;;;;0.97;0.97;;;;;;;;;;4966771;28;20281;-64
2021/12/22 00:06:25;;;;;;;0.53;0.53;;;;;;;;;;4970020;28;20627;-65
2021/12/22 00:08:52;;;;;;;4.07;0.80;;;;;;;;;;4972069;28;20212;-64
2021/12/22 00:11:20;;;;;;;0.93;0.93;;;;;;;;;;4971383;28;20202;-65
2021/12/22 00:13:48;;;;;;;0.87;0.80;;;;;;;;;;4971608;28;20587;-64
2021/12/22 00:16:15;;;;;;;0.60;0.60;;;;;;;;;;4972436;28;20226;-64
2021/12/22 00:18:42;;;;;;;0.67;0.67;;;;;;;;;;4972392;28;20673;-65
2021/12/22 00:21:09;;;;;;;0.77;0.77;;;;;;;;;;4969808;28;20203;-64
2021/12/22 00:23:37;;;;;;;2.50;1.20;;;;;;;;;;4974037;28;20320;-64
2021/12/22 00:26:05;;;;;;;0.93;0.93;;;;;;;;;;4970669;28;20203;-65
2021/12/22 00:28:32;;;;;;;0.37;0.37;;;;;;;;;;4971551;28;20214;-64
2021/12/22 00:31:08;;;;;;;1.57;1.50;;;;;;;;;;4972195;28;20285;-64
2021/12/22 00:33:44;;;;;;;0.93;0.50;;;;;;;;;;4973477;28;20237;-64
2021/12/22 00:36:11;;;;;;;3.20;1.13;;;;;;;;;;4971407;28;20317;-63
2021/12/22 00:38:38;;;;;;;0.63;0.63;;;;;;;;;;4967228;28;20573;-64
2021/12/22 00:41:06;;;;;;;1.07;1.00;;;;;;;;;;4971270;28;20792;-64
2021/12/22 00:43:33;;;;;;;0.33;0.33;;;;;;;;;;4972643;28;20214;-64
2021/12/22 00:46:01;;;;;;;1.03;0.97;;;;;;;;;;4975565;28;20220;-64
2021/12/22 00:48:28;;;;;;;0.73;0.73;;;;;;;;;;4970294;28;20791;-64
2021/12/22 00:50:55;;;;;;;6.73;1.27;;;;;;;;;;4973711;28;20234;-64
2021/12/22 00:53:22;;;;;;;0.40;0.40;;;;;;;;;;4972166;28;20234;-64
2021/12/22 00:55:49;;;;;;;2.20;1.27;;;;;;;;;;4977095;28;20230;-64
2021/12/22 00:58:16;;;;;;;0.63;0.63;;;;;;;;;;4973588;28;20206;-67
2021/12/22 01:00:46;;;;;;;2.33;1.43;;;;;;;;;;4972864;28;20214;-65
2021/12/22 01:03:15;;;;;;;0.97;0.90;;;;;;;;;;4971950;28;20209;-65
2021/12/22 01:05:42;;;;;;;1.60;1.13;;;;;;;;;;4966208;28;20213;-64
2021/12/22 01:08:09;;;;;;;6.47;1.67;;;;;;;;;;4972324;28;20221;-64
2021/12/22 01:10:36;;;;;;;1.13;0.90;;;;;;;;;;4972458;28;20215;-65
2021/12/22 01:13:05;;;;;;;0.70;0.57;;;;;;;;;;4972021;28;20688;-65
2021/12/22 01:15:33;;;;;;;1.33;1.03;;;;;;;;;;4971308;28;20230;-64
2021/12/22 01:18:03;;;;;;;0.87;0.83;;;;;;;;;;4971632;28;20210;-65
2021/12/22 01:20:37;;;;;;;0.67;0.67;;;;;;;;;;4972091;28;20277;-65
2021/12/22 01:23:06;;;;;;;2.27;1.03;;;;;;;;;;4972196;28;20206;-65
2021/12/22 01:25:35;;;;;;;0.70;0.70;;;;;;;;;;4971303;28;20578;-65
2021/12/22 01:28:02;;;;;;;1.33;0.77;;;;;;;;;;4971563;28;20693;-65
2021/12/22 01:30:31;;;;;;;1.30;0.80;;;;;;;;;;4963136;28;20218;-64
2021/12/22 01:32:59;;;;;;;0.70;0.70;;;;;;;;;;4971425;28;20209;-64
2021/12/22 01:35:27;;;;;;;0.90;0.90;;;;;;;;;;4961747;28;20214;-65
2021/12/22 01:37:56;;;;;;;2.50;1.17;;;;;;;;;;4972551;28;20203;-64
2021/12/22 01:40:23;;;;;;;6.63;0.80;;;;;;;;;;4972462;28;20207;-64
2021/12/22 01:42:51;;;;;;;0.97;0.93;;;;;;;;;;4971787;28;20210;-64
2021/12/22 01:45:29;;;;;;;1.20;0.90;;;;;;;;;;4971908;28;20207;-64
2021/12/22 01:50:43;;;;;;;1.37;1.17;;;;;;;;;;4972165;28;20320;-64
2021/12/22 01:53:31;;;;;;;1.23;1.00;;;;;;;;;;4970423;28;20257;-65
2021/12/22 01:56:06;;;;;;;0.97;0.97;;;;;;;;;;4971998;28;20222;-65
2021/12/22 01:58:34;;;;;;;1.60;1.13;;;;;;;;;;4964981;28;20296;-65
2021/12/22 02:01:02;;;;;;;0.67;0.67;;;;;;;;;;4971392;28;20213;-64
2021/12/22 02:03:29;;;;;;;0.57;0.57;;;;;;;;;;4971605;28;20206;-65
2021/12/22 02:05:56;;;;;;;3.57;1.07;;;;;;;;;;4971615;28;20209;-64
2021/12/22 02:08:24;;;;;;;2.23;0.83;;;;;;;;;;4971485;28;20209;-64
2021/12/22 02:10:51;;;;;;;5.00;0.90;;;;;;;;;;4971004;28;20600;-64
2021/12/22 02:13:23;;;;;;;2.00;1.47;;;;;;;;;;4971372;28;20237;-64
2021/12/22 02:15:50;;;;;;;1.80;0.90;;;;;;;;;;4971224;28;20842;-64
2021/12/22 02:18:19;;;;;;;0.77;0.67;;;;;;;;;;4971081;28;20692;-64
2021/12/22 02:20:48;;;;;;;1.13;1.00;;;;;;;;;;4971846;28;20203;-64
2021/12/22 02:23:16;;;;;;;1.80;0.87;;;;;;;;;;4968498;28;20210;-64
2021/12/22 02:25:49;;;;;;;1.07;0.93;;;;;;;;;;4972165;28;20206;-65
2021/12/22 02:28:21;;;;;;;1.10;1.10;;;;;;;;;;4971259;28;20855;-64
2021/12/22 02:30:48;;;;;;;4.53;1.33;;;;;;;;;;4970316;28;20210;-65
2021/12/22 02:33:23;;;;;;;1.00;1.00;;;;;;;;;;4971415;28;20203;-65
2021/12/22 02:36:06;;;;;;;1.60;0.80;;;;;;;;;;4971371;28;20256;-64
2021/12/22 02:38:34;;;;;;;1.17;1.17;;;;;;;;;;4971266;28;20210;-64
2021/12/22 02:41:01;;;;;;;1.70;0.93;;;;;;;;;;4970532;28;20633;-64
2021/12/22 02:43:32;;;;;;;0.60;0.60;;;;;;;;;;4970758;28;20217;-64
2021/12/22 02:45:59;;;;;;;1.33;1.23;;;;;;;;;;4971430;28;20202;-65
2021/12/22 02:48:29;;;;;;;1.00;0.90;;;;;;;;;;4969086;28;20983;-64
2021/12/22 02:50:59;;;;;;;1.60;1.20;;;;;;;;;;4969354;28;20593;-65
2021/12/22 02:53:31;;;;;;;0.40;0.40;;;;;;;;;;4969055;28;20671;-65
2021/12/22 02:56:03;;;;;;;1.80;1.13;;;;;;;;;;4968557;28;20231;-64
2021/12/22 02:58:37;;;;;;;2.40;1.23;;;;;;;;;;4969291;28;20771;-64
2021/12/22 03:01:24;;;;;;;1.80;0.73;;;;;;;;;;4968632;28;20209;-64
2021/12/22 03:03:57;;;;;;;1.23;1.23;;;;;;;;;;4968818;28;20210;-65
2021/12/22 03:06:32;;;;;;;0.53;0.53;;;;;;;;;;4969077;28;20335;-64
2021/12/22 03:08:59;;;;;;;1.90;1.70;;;;;;;;;;4966960;28;20206;-65
2021/12/22 03:11:27;;;;;;;0.63;0.63;;;;;;;;;;4969703;28;20209;-64
2021/12/22 03:13:54;;;;;;;2.37;0.90;;;;;;;;;;4969069;28;20665;-64
2021/12/22 03:16:21;;;;;;;1.33;1.30;;;;;;;;;;4969734;28;20230;-67
2021/12/22 03:18:48;;;;;;;1.50;1.40;;;;;;;;;;4969604;28;20693;-64
2021/12/22 03:21:21;;;;;;;0.90;0.90;;;;;;;;;;4969560;28;20202;-65
2021/12/22 03:23:51;;;;;;;1.10;1.10;;;;;;;;;;4969836;28;20225;-64
2021/12/22 03:26:20;;;;;;;1.97;1.70;;;;;;;;;;4963204;28;20205;-64
2021/12/22 03:28:47;;;;;;;1.70;0.87;;;;;;;;;;4966654;28;20206;-64
2021/12/22 03:31:15;;;;;;;1.07;0.97;;;;;;;;;;4969685;28;20202;-64
2021/12/22 03:33:42;;;;;;;0.57;0.40;;;;;;;;;;4970023;28;20257;-64
2021/12/22 03:36:09;;;;;;;1.23;0.60;;;;;;;;;;4969547;28;20222;-64
2021/12/22 03:38:37;;;;;;;1.63;1.53;;;;;;;;;;4969432;28;20658;-64
2021/12/22 03:41:06;;;;;;;0.90;0.90;;;;;;;;;;4968243;28;20629;-64
2021/12/22 03:43:34;;;;;;;0.70;0.70;;;;;;;;;;4961258;28;20206;-64
2021/12/22 03:46:01;;;;;;;0.77;0.77;;;;;;;;;;4969366;28;20213;-64
2021/12/22 03:48:28;;;;;;;0.73;0.70;;;;;;;;;;4969351;28;20206;-64
2021/12/22 03:50:56;;;;;;;0.77;0.77;;;;;;;;;;4968925;28;20226;-64
2021/12/22 03:53:23;;;;;;;5.93;1.13;;;;;;;;;;4968635;28;20244;-64
2021/12/22 03:55:50;;;;;;;0.73;0.73;;;;;;;;;;4968111;28;20206;-64
2021/12/22 03:58:18;;;;;;;1.37;1.33;;;;;;;;;;4964967;28;20230;-64
2021/12/22 04:00:46;;;;;;;1.00;0.90;;;;;;;;;;4969002;28;20202;-64
2021/12/22 04:03:17;;;;;;;1.07;1.07;;;;;;;;;;4968916;28;20206;-64
2021/12/22 04:05:44;;;;;;;1.10;1.10;;;;;;;;;;4966992;28;20206;-64
2021/12/22 04:08:13;;;;;;;1.37;1.27;;;;;;;;;;4966488;28;20210;-64
2021/12/22 04:10:40;;;;;;;0.50;0.50;;;;;;;;;;4968260;28;20297;-64
2021/12/22 04:13:09;;;;;;;1.73;1.63;;;;;;;;;;4969028;28;20207;-64
2021/12/22 04:15:37;;;;;;;2.20;1.57;;;;;;;;;;4969074;28;20206;-64
2021/12/22 04:18:04;;;;;;;1.37;0.80;;;;;;;;;;4968550;28;20708;-64
2021/12/22 04:20:31;;;;;;;3.03;1.07;;;;;;;;;;4953003;28;20207;-64
2021/12/22 04:22:59;;;;;;;0.73;0.73;;;;;;;;;;4956550;28;20669;-64
2021/12/22 04:25:26;;;;;;;0.60;0.60;;;;;;;;;;4965156;28;20689;-64
2021/12/22 04:27:56;;;;;;;1.43;1.33;;;;;;;;;;4966656;28;20224;-64
2021/12/22 04:30:24;;;;;;;2.33;1.40;;;;;;;;;;4951306;28;20210;-64
2021/12/22 04:32:52;;;;;;;0.93;0.50;;;;;;;;;;4966171;28;20921;-64
2021/12/22 04:35:19;;;;;;;1.30;1.10;;;;;;;;;;4957370;28;20643;-64
2021/12/22 04:37:46;;;;;;;1.30;1.20;;;;;;;;;;4955881;28;20227;-64
2021/12/22 04:40:13;;;;;;;1.30;0.97;;;;;;;;;;4956217;28;20587;-64
2021/12/22 04:42:40;;;;;;;1.67;1.43;;;;;;;;;;4972474;28;20213;-64
2021/12/22 04:45:08;;;;;;;2.17;0.90;;;;;;;;;;4972197;28;20258;-64
2021/12/22 04:47:36;;;;;;;1.67;1.20;;;;;;;;;;4972714;28;20688;-64
2021/12/22 04:50:09;;;;;;;1.47;0.83;;;;;;;;;;4972715;28;20222;-64
2021/12/22 04:52:42;;;;;;;1.13;0.60;;;;;;;;;;4972119;28;20209;-64
2021/12/22 04:55:10;;;;;;;1.70;1.43;;;;;;;;;;4972092;28;20206;-64
2021/12/22 04:57:37;;;;;;;1.53;1.17;;;;;;;;;;4972163;28;20226;-64
2021/12/22 05:00:08;;;;;;;2.83;0.63;;;;;;;;;;4968852;28;20222;-64
2021/12/22 05:02:36;;;;;;;4.07;1.47;;;;;;;;;;4972476;28;20206;-64
2021/12/22 05:05:05;;;;;;;0.97;0.97;;;;;;;;;;4971190;28;20213;-64
2021/12/22 05:07:32;;;;;;;0.93;0.93;;;;;;;;;;4957093;28;20257;-64
2021/12/22 05:09:59;;;;;;;1.80;0.83;;;;;;;;;;4972160;28;20642;-64
2021/12/22 05:12:26;;;;;;;0.73;0.73;;;;;;;;;;4972006;28;20219;-65
2021/12/22 05:14:53;;;;;;;1.20;1.07;;;;;;;;;;4971987;28;20217;-64
2021/12/22 05:17:24;;;;;;;1.17;0.90;;;;;;;;;;4969612;28;20225;-64
2021/12/22 05:19:51;;;;;;;1.20;1.20;;;;;;;;;;4972008;28;20217;-64
2021/12/22 05:22:20;;;;;;;2.53;1.37;;;;;;;;;;4971291;28;20625;-64
2021/12/22 05:24:47;;;;;;;2.13;1.33;;;;;;;;;;4971989;28;20892;-64
2021/12/22 05:27:14;;;;;;;1.00;1.00;;;;;;;;;;4967617;28;20206;-64
2021/12/22 05:29:41;;;;;;;0.87;0.87;;;;;;;;;;4970435;28;20221;-64
2021/12/22 05:32:08;;;;;;;0.70;0.70;;;;;;;;;;4972035;28;20209;-64
2021/12/22 05:34:36;;;;;;;0.53;0.53;;;;;;;;;;4971583;28;20218;-67
2021/12/22 05:37:03;;;;;;;1.10;0.97;;;;;;;;;;4971897;28;20246;-64
2021/12/22 05:39:31;;;;;;;1.80;1.10;;;;;;;;;;4963595;28;20210;-64
2021/12/22 05:41:59;;;;;;;0.40;0.40;;;;;;;;;;4966107;28;20296;-64
2021/12/22 05:44:26;;;;;;;0.87;0.70;;;;;;;;;;4954585;28;20232;-64
2021/12/22 05:46:53;;;;;;;1.70;1.60;;;;;;;;;;4953185;28;20214;-64
2021/12/22 05:49:21;;;;;;;0.90;0.80;;;;;;;;;;4968799;28;20292;-64
2021/12/22 05:51:48;;;;;;;0.50;0.50;;;;;;;;;;4956228;28;20211;-64
2021/12/22 05:54:15;;;;;;;2.73;1.70;;;;;;;;;;4970379;28;20238;-64
2021/12/22 05:56:43;;;;;;;0.97;0.97;;;;;;;;;;4971625;28;20213;-64
2021/12/22 05:59:10;;;;;;;1.47;0.80;;;;;;;;;;4970371;28;20210;-64
2021/12/22 06:01:37;;;;;;;1.53;1.43;;;;;;;;;;4970891;28;20730;-64
2021/12/22 06:04:06;;;;;;;1.67;1.57;;;;;;;;;;4970624;28;21843;-64
2021/12/22 06:06:33;;;;;;;1.80;1.13;;;;;;;;;;4953603;28;20199;-64
2021/12/22 06:09:00;;;;;;;2.53;1.90;;;;;;;;;;4970841;28;20206;-64
2021/12/22 06:11:27;;;;;;;1.70;1.20;;;;;;;;;;4971576;28;20203;-65
2021/12/22 06:13:57;;;;;;;1.37;1.27;;;;;;;;;;4971455;28;20241;-64
2021/12/22 06:16:24;;;;;;;1.20;1.10;;;;;;;;;;4971699;28;20845;-63
2021/12/22 06:18:57;;;;;;;0.80;0.80;;;;;;;;;;4972285;28;20735;-64
2021/12/22 06:21:24;;;;;;;0.40;0.40;;;;;;;;;;4971716;28;20206;-64
2021/12/22 06:23:51;;;;;;;3.50;1.70;;;;;;;;;;4972574;28;20222;-64
2021/12/22 06:26:18;;;;;;;1.17;0.40;;;;;;;;;;4968060;28;20227;-64
2021/12/22 06:28:45;;;;;;;2.10;1.80;;;;;;;;;;4967870;28;20210;-64
2021/12/22 06:31:14;;;;;;;0.60;0.60;;;;;;;;;;4966216;28;20224;-65
2021/12/22 06:33:41;;;;;;;1.17;1.13;;;;;;;;;;4971744;28;20213;-67
2021/12/22 06:36:08;;;;;;;2.20;0.77;;;;;;;;;;4971789;28;20218;-65
2021/12/22 06:38:35;;;;;;;1.47;1.10;;;;;;;;;;4971884;28;20763;-64
2021/12/22 06:41:04;;;;;;;3.50;1.67;;;;;;;;;;4972296;28;20213;-65
2021/12/22 06:43:31;;;;;;;1.73;1.37;;;;;;;;;;4971222;28;20206;-65
2021/12/22 06:45:58;;;;;;;2.63;1.50;;;;;;;;;;4970638;28;20238;-66
2021/12/22 06:48:27;;;;;;;1.67;0.80;;;;;;;;;;4962851;28;20216;-58
2021/12/22 06:50:54;;;;;;;2.10;1.17;;;;;;;;;;4966514;28;20748;-65
2021/12/22 06:53:21;;;;;;;2.80;2.00;;;;;;;;;;4969474;28;20252;-63
2021/12/22 06:55:48;;;;;;;4.30;1.17;;;;;;;;;;4971516;28;20225;-65
2021/12/22 06:58:15;;;;;;;2.63;1.50;;;;;;;;;;4968183;28;20704;-66
2021/12/22 07:00:42;;;;;;;1.37;1.27;;;;;;;;;;4971698;28;20206;-66
2021/12/22 07:03:09;;;;;;;1.73;1.63;;;;;;;;;;4971873;28;20244;-66
2021/12/22 07:05:38;;;;;;;0.70;0.70;;;;;;;;;;4971515;28;20203;-66
2021/12/22 07:08:05;;;;;;;0.73;0.73;;;;;;;;;;4970989;28;20621;-66
2021/12/22 07:10:32;;;;;;;1.47;1.37;;;;;;;;;;4971341;28;20206;-65
2021/12/22 07:12:59;;;;;;;2.20;0.80;;;;;;;;;;4969961;28;20210;-66
2021/12/22 07:15:26;;;;;;;1.80;1.20;;;;;;;;;;4971478;28;20708;-66
2021/12/22 07:17:53;;;;;;;0.50;0.50;;;;;;;;;;4970980;28;20234;-67
2021/12/22 07:20:21;;;;;;;2.90;1.30;;;;;;;;;;4970925;28;20556;-66
2021/12/22 07:22:49;;;;;;;7.67;0.93;;;;;;;;;;4971193;28;20214;-66
2021/12/22 07:25:18;;;;;;;1.20;0.97;;;;;;;;;;4971378;28;20213;-66
2021/12/22 07:27:45;;;;;;;3.40;1.60;;;;;;;;;;4970989;28;20213;-67
2021/12/22 07:30:13;;;;;;;4.10;1.13;;;;;;;;;;4970907;28;20564;-66
2021/12/22 07:32:40;;;;;;;2.03;1.07;;;;;;;;;;4971099;28;20673;-66
2021/12/22 07:35:08;;;;;;;1.63;1.53;;;;;;;;;;4970637;28;20664;-66
2021/12/22 07:37:39;;;;;;;1.60;1.50;;;;;;;;;;4970923;28;20229;-66
2021/12/22 07:40:09;;;;;;;2.07;1.17;;;;;;;;;;4970687;28;20221;-66
2021/12/22 07:42:37;;;;;;;1.87;1.37;;;;;;;;;;4970740;28;20224;-66
2021/12/22 07:45:05;;;;;;;2.37;0.87;;;;;;;;;;4970561;28;20594;-66
2021/12/22 07:47:32;;;;;;;1.50;1.40;;;;;;;;;;4970674;28;20249;-66
2021/12/22 07:49:59;;;;;;;1.27;1.23;;;;;;;;;;4970199;28;20349;-66
2021/12/22 07:52:27;;;;;;;1.63;1.50;;;;;;;;;;4970474;28;20686;-66
2021/12/22 07:54:54;;;;;;;1.77;1.60;;;;;;;;;;4970479;28;20222;-66
2021/12/22 07:57:22;;;;;;;2.07;1.97;;;;;;;;;;4970352;28;20692;-66
2021/12/22 07:59:49;;;;;;;2.20;2.03;;;;;;;;;;4970417;28;20206;-66
2021/12/22 08:02:16;;;;;;;1.83;1.73;;;;;;;;;;4969796;28;20210;-67
2021/12/22 08:04:43;;;;;;;0.73;0.73;;;;;;;;;;4970097;28;20248;-67
2021/12/22 08:07:11;;;;;;;4.97;1.87;;;;;;;;;;4969801;28;20653;-67
2021/12/22 08:09:38;;;;;;;3.13;1.73;;;;;;;;;;4970046;28;20217;-67
2021/12/22 08:12:05;;;;;;;1.50;1.10;;;;;;;;;;4970206;28;20622;-67
2021/12/22 08:14:34;;;;;;;2.80;1.43;;;;;;;;;;4967642;28;20229;-67
2021/12/22 08:17:01;;;;;;;4.03;1.93;;;;;;;;;;4969882;28;20713;-67
2021/12/22 08:19:28;;;;;;;1.40;1.30;;;;;;;;;;4973432;28;20245;-66
2021/12/22 08:21:56;;;;;;;1.33;1.13;;;;;;;;;;4973087;28;20247;-66
2021/12/22 08:24:23;;;;;;;1.50;1.40;;;;;;;;;;4969526;28;20208;-66
2021/12/22 08:26:50;;;;;;;1.10;1.00;;;;;;;;;;4969976;28;20209;-65
2021/12/22 08:29:18;;;;;;;2.67;2.03;;;;;;;;;;4969639;28;20201;-66
2021/12/22 08:31:46;;;;;;;2.67;1.87;;;;;;;;;;4970409;28;20675;-64
2021/12/22 08:34:21;;;;;;;1.10;1.00;;;;;;;;;;4970290;28;20202;-68
2021/12/22 08:39:33;;;;;;;1.80;1.30;;;;;;;;;;4969471;28;20252;-64
2021/12/22 08:42:00;;;;;;;1.47;1.37;;;;;;;;;;4969877;28;20872;-66
2021/12/22 08:44:27;;;;;;;2.07;1.00;;;;;;;;;;4969821;28;20786;-66
2021/12/22 08:46:56;;;;;;;2.70;1.70;;;;;;;;;;4967843;28;20214;-66
2021/12/22 08:49:23;;;;;;;2.90;2.07;;;;;;;;;;4969586;28;20261;-66
2021/12/22 08:51:51;;;;;;;0.80;0.80;;;;;;;;;;4969820;28;20216;-66
2021/12/22 08:54:18;;;;;;;1.47;1.47;;;;;;;;;;4969744;28;20242;-65
2021/12/22 08:56:46;;;;;;;3.30;1.67;;;;;;;;;;4969768;28;20206;-67
2021/12/22 08:59:13;;;;;;;2.97;1.60;;;;;;;;;;4969710;28;20220;-67
2021/12/22 09:01:40;;;;;;;0.67;0.67;;;;;;;;;;4969641;28;20322;-65
2021/12/22 09:04:09;;;;;;;1.40;1.03;;;;;;;;;;4969837;28;20722;-66
2021/12/22 09:06:36;;;;;;;1.50;1.50;;;;;;;;;;4968866;28;20215;-66
2021/12/22 09:09:04;;;;;;;3.13;0.87;;;;;;;;;;4968952;28;20211;-65
2021/12/22 09:11:31;;;;;;;1.43;1.43;;;;;;;;;;4968524;28;20210;-66
2021/12/22 09:13:58;;;;;;;1.83;1.63;;;;;;;;;;4969388;28;20739;-65
2021/12/22 09:16:25;;;;;;;2.53;1.60;;;;;;;;;;4969573;28;20218;-66
2021/12/22 09:18:52;;;;;;;3.60;1.93;;;;;;;;;;4968802;28;20591;-66
2021/12/22 09:21:21;;;;;;;1.37;1.27;;;;;;;;;;4969387;28;20677;-66
2021/12/22 09:23:49;;;;;;;2.67;1.83;;;;;;;;;;4968705;28;20265;-65
2021/12/22 09:26:16;;;;;;;1.27;1.17;;;;;;;;;;4969348;28;20214;-60
2021/12/22 09:28:43;;;;;;;1.60;1.50;;;;;;;;;;4972753;28;20582;-66
2021/12/22 09:31:11;;;;;;;2.93;2.03;;;;;;;;;;4972971;28;20225;-65
2021/12/22 09:33:38;;;;;;;1.80;1.70;;;;;;;;;;4972097;28;20688;-66
2021/12/22 09:36:06;;;;;;;2.67;2.47;;;;;;;;;;4971981;28;20207;-66
2021/12/22 09:38:34;;;;;;;2.87;2.57;;;;;;;;;;4972047;28;20231;-68
2021/12/22 09:41:02;;;;;;;1.70;1.40;;;;;;;;;;4965778;28;20211;-67
2021/12/22 09:43:29;;;;;;;0.70;0.70;;;;;;;;;;4968177;28;20226;-68
2021/12/22 09:46:00;;;;;;;1.80;1.33;;;;;;;;;;4972170;28;20297;-68
2021/12/22 09:48:36;;;;;;;1.70;1.60;;;;;;;;;;4971766;28;20207;-68
2021/12/22 09:53:56;;;;;;;2.20;1.57;;;;;;;;;;4915816;28;20336;-69
2021/12/22 09:56:24;;;;;;;3.80;1.73;;;;;;;;;;4971876;28;20215;-68
2021/12/22 09:58:52;;;;;;;2.40;1.67;;;;;;;;;;4971324;28;20242;-71
2021/12/22 10:01:23;;;;;;;0.97;0.97;;;;;;;;;;4971537;28;20214;-63
2021/12/22 10:03:50;;;;;;;10.97;6.27;;;;;;;;;;4969718;28;20299;-69
2021/12/22 10:06:17;;;;;;;4.30;3.43;;;;;;;;;;4970754;28;20209;-68
2021/12/22 10:08:51;;;;;;;3.30;3.03;;;;;;;;;;4963310;28;20221;-71
2021/12/22 10:11:20;;;;;;;2.30;2.20;;;;;;;;;;4970506;28;20221;-70
2021/12/22 10:13:47;;;;;;;7.57;2.43;;;;;;;;;;4967614;28;20218;-71
2021/12/22 10:16:15;;;;;;;8.47;3.00;;;;;;;;;;4968934;28;20667;-68
2021/12/22 10:18:42;;;;;;;4.30;2.73;;;;;;;;;;4968362;28;20226;-69
2021/12/22 10:21:10;;;;;;;5.53;3.20;;;;;;;;;;4976716;28;20198;-69
2021/12/22 10:23:37;;;;;;;11.17;3.07;;;;;;;;;;4971250;28;20326;-71
2021/12/22 10:26:06;;;;;;;7.40;2.90;;;;;;;;;;4971173;28;20217;-69
2021/12/22 10:28:47;;;;;;;4.90;2.97;;;;;;;;;;4969384;28;20212;-70
2021/12/22 10:31:15;;;;;;;4.13;2.43;;;;;;;;;;4952387;29;20782;-70
2021/12/22 10:33:42;;;;;;;6.63;3.73;;;;;;;;;;4964180;28;20212;-70
2021/12/22 10:36:12;;;;;;;3.93;2.90;;;;;;;;;;4971075;28;20225;-71
2021/12/22 10:38:39;;;;;;;3.50;2.20;;;;;;;;;;4970946;28;20233;-70
2021/12/22 10:41:07;;;;;;;3.40;3.10;;;;;;;;;;4970939;28;20477;-71
2021/12/22 10:43:41;;;;;;;5.73;2.67;;;;;;;;;;4971664;28;20217;-71
2021/12/22 10:46:13;;;;;;;5.67;3.20;;;;;;;;;;4981673;28;20309;-71
2021/12/22 10:51:26;;;;;;;5.30;3.43;;;;;;;;;;4973990;28;20217;-71
2021/12/22 10:53:53;;;;;;;6.10;3.57;;;;;;;;;;4971564;28;20245;-71
2021/12/22 10:56:30;;;;;;;5.43;2.57;;;;;;;;;;4965238;28;20624;-72
2021/12/22 10:59:03;;;;;;;5.53;3.83;;;;;;;;;;4968650;28;20227;-72
2021/12/22 11:01:30;;;;;;;2.63;2.43;;;;;;;;;;4960261;28;20207;-71
2021/12/22 11:04:03;;;;;;;5.43;3.83;;;;;;;;;;4967366;28;20218;-72
2021/12/22 11:06:32;;;;;;;4.23;3.63;;;;;;;;;;4965383;28;20249;-72
2021/12/22 11:09:00;;;;;;;3.87;3.10;;;;;;;;;;4970135;28;20206;-72
2021/12/22 11:11:31;;;;;;;5.60;3.30;;;;;;;;;;4971076;28;20208;-72
2021/12/22 11:14:04;;;;;;;3.70;3.13;;;;;;;;;;4973043;28;20582;-71
2021/12/22 11:16:31;;;;;;;3.10;2.77;;;;;;;;;;4967589;28;20210;-71
2021/12/22 11:19:08;;;;;;;1.87;1.77;;;;;;;;;;4970172;28;20227;-71
2021/12/22 11:21:37;;;;;;;3.47;3.17;;;;;;;;;;4967169;28;20218;-72
2021/12/22 11:24:04;;;;;;;5.13;3.77;;;;;;;;;;4969733;28;20984;-72
2021/12/22 11:26:31;;;;;;;5.30;4.10;;;;;;;;;;4970262;28;20218;-72
2021/12/22 11:28:59;;;;;;;2.87;2.67;;;;;;;;;;4970802;28;20205;-72
2021/12/22 11:31:27;;;;;;;2.90;2.67;;;;;;;;;;4970862;28;20215;-72
2021/12/22 11:33:55;;;;;;;5.07;3.40;;;;;;;;;;4969256;28;20240;-72
2021/12/22 11:36:22;;;;;;;10.27;3.80;;;;;;;;;;4972322;28;20252;-72
2021/12/22 11:38:49;;;;;;;5.97;3.47;;;;;;;;;;4970590;28;20239;-73
2021/12/22 11:41:19;;;;;;;5.47;3.60;;;;;;;;;;4970565;28;20210;-73
2021/12/22 11:43:48;;;;;;;7.30;3.00;;;;;;;;;;4965974;28;20217;-72
2021/12/22 11:46:15;;;;;;;7.37;3.70;;;;;;;;;;4960542;28;20220;-69
2021/12/22 11:48:46;;;;;;;3.50;3.00;;;;;;;;;;4968649;28;20210;-70
2021/12/22 11:51:23;;;;;;;2.77;2.40;;;;;;;;;;4965494;28;20210;-72
2021/12/22 11:53:51;;;;;;;5.30;2.90;;;;;;;;;;4966051;28;20262;-73
2021/12/22 11:56:33;;;;;;;4.83;3.27;;;;;;;;;;4966215;28;20231;-73
2021/12/22 11:59:00;;;;;;;6.57;4.13;;;;;;;;;;4964313;28;20229;-71
2021/12/22 12:01:27;;;;;;;4.03;3.17;;;;;;;;;;4966940;28;20217;-70
2021/12/22 12:04:11;;;;;;;5.73;3.13;;;;;;;;;;4963196;28;20217;-72
2021/12/22 12:06:47;;;;;;;6.50;3.93;;;;;;;;;;4964189;28;20214;-72
2021/12/22 12:09:14;;;;;;;6.27;3.30;;;;;;;;;;4964722;28;20210;-71
2021/12/22 12:11:46;;;;;;;11.23;4.40;;;;;;;;;;4965521;28;20216;-72
2021/12/22 12:14:29;;;;;;;4.33;2.40;;;;;;;;;;4963237;28;20214;-73
2021/12/22 12:22:31;;;;;;;2.73;2.20;;;;;;;;;;4963838;28;20693;-67
2021/12/22 12:25:09;;;;;;;5.73;3.33;;;;;;;;;;4964471;28;20927;-70
2021/12/22 12:27:38;;;;;;;6.83;4.07;;;;;;;;;;4969408;28;20229;-77
2021/12/22 12:30:07;;;;;;;5.67;3.17;;;;;;;;;;4962343;28;20231;-72
2021/12/22 12:32:53;;;;;;;4.17;3.40;;;;;;;;;;4968115;28;20210;-77
2021/12/22 12:35:26;;;;;;;5.47;3.87;;;;;;;;;;4967663;28;20206;-73
2021/12/22 12:37:57;;;;;;;6.47;3.97;;;;;;;;;;4969133;28;20214;-79
2021/12/22 12:40:24;;;;;;;9.63;4.37;;;;;;;;;;4964833;28;20237;-72
2021/12/22 12:42:58;;;;;;;6.33;4.13;;;;;;;;;;4968425;28;20568;-73
2021/12/22 12:45:42;;;;;;;4.00;3.30;;;;;;;;;;4967590;28;20218;-73
2021/12/22 12:48:27;;;;;;;5.30;4.03;;;;;;;;;;4968713;28;20304;-72
2021/12/22 12:51:15;;;;;;;5.63;3.37;;;;;;;;;;4966552;28;20240;-81
2021/12/22 12:53:43;;;;;;;5.50;3.57;;;;;;;;;;4966641;28;20241;-70
2021/12/22 12:56:10;;;;;;;5.00;2.30;;;;;;;;;;4966063;28;20234;-69
2021/12/22 12:58:52;;;;;;;9.50;3.43;;;;;;;;;;4968840;28;20714;-70
2021/12/22 13:01:19;;;;;;;3.90;3.50;;;;;;;;;;4966381;28;20205;-70
2021/12/22 13:03:49;;;;;;;6.77;3.87;;;;;;;;;;4971828;28;20221;-70
2021/12/22 13:06:18;;;;;;;7.03;4.50;;;;;;;;;;4971793;28;20249;-67
2021/12/22 13:08:46;;;;;;;3.67;2.40;;;;;;;;;;4972055;28;20216;-72
2021/12/22 13:11:13;;;;;;;4.67;3.70;;;;;;;;;;4971163;28;20300;-66
2021/12/22 13:15:45;;;;;;;7.87;3.73;;;;;;;;;;4970437;28;20311;-70
2021/12/22 13:16:40;;;;;;;4.00;2.93;;;;;;;;;;4968078;28;20324;-69
2021/12/22 13:19:07;;;;;;;1.07;1.07;;;;;;;;;;4968579;28;20668;-71
2021/12/22 13:21:35;;;;;;;3.20;2.37;;;;;;;;;;4970944;28;20205;-69
2021/12/22 13:24:02;;;;;;;8.57;2.77;;;;;;;;;;4970391;28;20227;-70
2021/12/22 13:26:29;;;;;;;5.27;3.10;;;;;;;;;;4969234;28;20319;-73
2021/12/22 13:28:56;;;;;;;3.90;2.83;;;;;;;;;;4969994;28;20709;-71
2021/12/22 13:31:23;;;;;;;8.10;3.20;;;;;;;;;;4969471;28;20252;-75
2021/12/22 13:34:02;;;;;;;6.13;3.90;;;;;;;;;;4969612;28;20213;-69
2021/12/22 13:36:29;;;;;;;4.63;3.27;;;;;;;;;;4970646;28;20212;-70
2021/12/22 13:39:01;;;;;;;2.77;2.53;;;;;;;;;;4970100;28;20216;-69
2021/12/22 13:41:31;;;;;;;5.77;2.80;;;;;;;;;;4971363;28;20232;-70
2021/12/22 13:43:59;;;;;;;6.87;3.20;;;;;;;;;;4970902;28;20213;-69
2021/12/22 13:46:30;;;;;;;3.80;3.13;;;;;;;;;;4970926;28;20225;-69
2021/12/22 13:49:00;;;;;;;3.03;2.80;;;;;;;;;;4969245;28;20220;-68
2021/12/22 13:51:29;;;;;;;5.83;4.13;;;;;;;;;;4968478;28;20211;-70
2021/12/22 13:53:56;;;;;;;3.77;1.03;;;;;;;;;;4969220;28;20246;-72
2021/12/22 13:56:26;;;;;;;5.53;1.80;;;;;;;;;;4970957;28;20241;-71
2021/12/22 13:58:56;;;;;;;2.67;2.43;;;;;;;;;;4966253;28;20210;-72
2021/12/22 14:01:28;;;;;;;3.73;1.67;;;;;;;;;;4964866;28;20240;-72
2021/12/22 14:04:12;;;;;;;5.67;3.13;;;;;;;;;;4961303;28;20286;-72
2021/12/22 14:06:42;;;;;;;3.30;2.50;;;;;;;;;;4970485;28;20247;-72
2021/12/22 14:09:10;;;;;;;4.07;2.93;;;;;;;;;;4970462;28;20236;-72
2021/12/22 14:11:40;;;;;;;2.97;2.67;;;;;;;;;;4970519;28;20206;-73
2021/12/22 14:14:24;;;;;;;2.87;2.73;;;;;;;;;;4970336;28;20687;-72
2021/12/22 14:16:52;;;;;;;1.90;1.50;;;;;;;;;;4969416;28;20223;-70
2021/12/22 14:19:19;;;;;;;4.63;3.90;;;;;;;;;;4972078;28;20375;-72
2021/12/22 14:21:47;;;;;;;7.10;4.77;;;;;;;;;;4969600;28;20458;-71
2021/12/22 14:24:20;;;;;;;4.17;3.23;;;;;;;;;;4969449;28;20325;-72
2021/12/22 14:26:49;;;;;;;3.70;3.37;;;;;;;;;;4972105;28;20270;-70
2021/12/22 14:29:16;;;;;;;8.57;4.23;;;;;;;;;;4972498;28;20216;-69
2021/12/22 14:32:04;;;;;;;3.17;2.50;;;;;;;;;;4970606;28;20241;-71
2021/12/22 14:34:31;;;;;;;4.30;3.13;;;;;;;;;;4955394;28;20224;-70
2021/12/22 14:37:01;;;;;;;3.77;3.47;;;;;;;;;;4969060;28;20229;-73
2021/12/22 14:39:42;;;;;;;2.10;1.80;;;;;;;;;;4972982;28;20263;-70
2021/12/22 14:42:24;;;;;;;4.07;3.27;;;;;;;;;;4972693;28;20211;-73
2021/12/22 14:44:51;;;;;;;6.70;3.63;;;;;;;;;;4972271;28;20213;-76
2021/12/22 14:47:19;;;;;;;3.73;2.83;;;;;;;;;;4972015;28;20217;-72
2021/12/22 14:49:47;;;;;;;6.40;3.70;;;;;;;;;;4972007;28;20633;-71
2021/12/22 14:52:14;;;;;;;3.93;3.13;;;;;;;;;;4971704;28;20232;-69
2021/12/22 14:54:41;;;;;;;5.47;3.77;;;;;;;;;;4971873;28;20246;-70
2021/12/22 14:57:08;;;;;;;5.17;3.33;;;;;;;;;;4971320;28;20211;-71
2021/12/22 14:59:37;;;;;;;6.23;3.27;;;;;;;;;;4971816;28;20214;-70
2021/12/22 15:02:04;;;;;;;5.10;2.90;;;;;;;;;;4971110;28;20212;-70
2021/12/22 15:04:31;;;;;;;3.07;2.77;;;;;;;;;;4971856;28;20224;-71
2021/12/22 15:06:58;;;;;;;5.57;3.40;;;;;;;;;;4972014;28;20217;-70
2021/12/22 15:09:25;;;;;;;7.43;3.83;;;;;;;;;;4972065;28;20221;-71
2021/12/22 15:11:52;;;;;;;6.53;2.80;;;;;;;;;;4972014;28;20206;-71